TVF47D EDDN-OEMA
Flight info
| Callsign | TVF47D |
|---|---|
| Flight time | 4h 27m |
| Altitude | 31000 |
| Route | RODIS1G RODIS L604 RUDNO T203 TIVDA T703 BEPAS DCT DITIS DCT PESAT DCT BAREB/N0463F330 DCT TUVAR DCT ODLET DCT VABEK UL603 OLOTA DCT DISOR UL608 FSK UG18 MES UL609 RDS UL995 VANZA N134 SAFTA L324 LAKTO L560 SILKA J852 KULKI |
| Aircraft | B738/M-SDE2E3FGHIRWXY/LB1 |
Departure
| Time | 2026-05-04 15:56 |
|---|---|
| Airport | Nuremberg Airport (EDDN) |
Arrival
| Time | 2026-05-04 20:24 |
|---|---|
| Airport | Prince Mohammad Bin Abdulaziz Airport (OEMA) |
| Time | Latitude | Longitude | Altitude | Speed | Heading |
|---|---|---|---|---|---|
| 2026-05-04 15:40 | 49.49516 | 11.07791 | 1034 ft | 0 kts | 188° |
| 2026-05-04 15:50 | 49.49529 | 11.07794 | 1034 ft | 2 kts | 188° |
| 2026-05-04 15:51 | 49.49546 | 11.07798 | 1035 ft | 2 kts | 177° |
| 2026-05-04 15:51 | 49.49563 | 11.07792 | 1035 ft | 3 kts | 148° |
| 2026-05-04 15:51 | 49.49576 | 11.07774 | 1035 ft | 3 kts | 119° |
| 2026-05-04 15:51 | 49.49581 | 11.07753 | 1035 ft | 0 kts | 95° |
| 2026-05-04 15:52 | 49.49581 | 11.07758 | 1035 ft | 6 kts | 91° |
| 2026-05-04 15:52 | 49.49565 | 11.07962 | 1036 ft | 21 kts | 98° |
| 2026-05-04 15:53 | 49.49545 | 11.08180 | 1037 ft | 20 kts | 98° |
| 2026-05-04 15:53 | 49.49555 | 11.08352 | 1041 ft | 9 kts | 31° |
| 2026-05-04 15:53 | 49.49615 | 11.08404 | 1041 ft | 7 kts | 66° |
| 2026-05-04 15:53 | 49.49614 | 11.08485 | 1043 ft | 11 kts | 95° |
| 2026-05-04 15:54 | 49.49602 | 11.08626 | 1044 ft | 14 kts | 98° |
| 2026-05-04 15:54 | 49.49585 | 11.08788 | 1046 ft | 17 kts | 100° |
| 2026-05-04 15:54 | 49.49563 | 11.08975 | 1048 ft | 19 kts | 99° |
| 2026-05-04 15:54 | 49.49544 | 11.09155 | 1049 ft | 13 kts | 98° |
| 2026-05-04 15:55 | 49.49533 | 11.09302 | 1052 ft | 16 kts | 92° |
| 2026-05-04 15:55 | 49.49588 | 11.09480 | 1054 ft | 20 kts | 52° |
| 2026-05-04 15:55 | 49.49702 | 11.09505 | 1057 ft | 20 kts | 302° |
| 2026-05-04 15:55 | 49.49726 | 11.09285 | 1055 ft | 30 kts | 278° |
| 2026-05-04 15:56 | 49.49792 | 11.08612 | 1042 ft | 96 kts | 279° |
| 2026-05-04 15:56 | 49.49924 | 11.07302 | 1041 ft | 150 kts | 278° |
| 2026-05-04 15:56 | 49.50154 | 11.05522 | 1196 ft | 173 kts | 273° |
| 2026-05-04 15:56 | 49.50252 | 11.03631 | 1738 ft | 189 kts | 279° |
| 2026-05-04 15:57 | 49.50406 | 11.01505 | 2153 ft | 203 kts | 278° |
| 2026-05-04 15:57 | 49.50601 | 10.99296 | 2613 ft | 218 kts | 280° |
| 2026-05-04 15:57 | 49.50862 | 10.96894 | 3051 ft | 235 kts | 283° |
| 2026-05-04 15:57 | 49.51334 | 10.94437 | 3512 ft | 249 kts | 307° |
| 2026-05-04 15:58 | 49.52740 | 10.92915 | 4149 ft | 255 kts | 341° |
| 2026-05-04 15:58 | 49.54491 | 10.92397 | 4837 ft | 260 kts | 359° |
| 2026-05-04 15:58 | 49.56336 | 10.92492 | 5424 ft | 270 kts | 1° |
| 2026-05-04 15:58 | 49.58243 | 10.92584 | 5999 ft | 277 kts | 0° |
| 2026-05-04 15:59 | 49.60194 | 10.92649 | 6639 ft | 282 kts | 0° |
| 2026-05-04 15:59 | 49.62171 | 10.92712 | 6912 ft | 286 kts | 0° |
| 2026-05-04 15:59 | 49.64149 | 10.92895 | 6921 ft | 286 kts | 14° |
| 2026-05-04 15:59 | 49.65865 | 10.94358 | 6954 ft | 286 kts | 47° |
| 2026-05-04 16:00 | 49.66865 | 10.96946 | 6972 ft | 287 kts | 76° |
| 2026-05-04 16:00 | 49.67082 | 11.00031 | 7361 ft | 288 kts | 97° |
| 2026-05-04 16:00 | 49.66653 | 11.03017 | 8101 ft | 285 kts | 109° |
| 2026-05-04 16:00 | 49.66051 | 11.05938 | 8784 ft | 286 kts | 111° |
| 2026-05-04 16:01 | 49.65427 | 11.08788 | 9509 ft | 286 kts | 112° |
| 2026-05-04 16:01 | 49.64775 | 11.11728 | 10089 ft | 291 kts | 114° |
| 2026-05-04 16:01 | 49.63995 | 11.14693 | 10353 ft | 307 kts | 118° |
| 2026-05-04 16:01 | 49.62919 | 11.17628 | 10493 ft | 322 kts | 132° |
| 2026-05-04 16:02 | 49.61395 | 11.20348 | 10644 ft | 340 kts | 135° |
| 2026-05-04 16:02 | 49.59771 | 11.23061 | 10781 ft | 358 kts | 136° |
| 2026-05-04 16:02 | 49.56226 | 11.28931 | 11204 ft | 385 kts | 136° |
| 2026-05-04 16:03 | 49.54402 | 11.31985 | 11706 ft | 389 kts | 135° |
| 2026-05-04 16:03 | 49.52571 | 11.35073 | 12268 ft | 391 kts | 135° |
| 2026-05-04 16:03 | 49.50735 | 11.38184 | 12816 ft | 394 kts | 135° |
| 2026-05-04 16:03 | 49.48885 | 11.41327 | 13330 ft | 397 kts | 135° |
| 2026-05-04 16:04 | 49.47028 | 11.44482 | 13805 ft | 399 kts | 135° |
| 2026-05-04 16:04 | 49.43269 | 11.50867 | 14536 ft | 405 kts | 135° |
| 2026-05-04 16:04 | 49.41371 | 11.54086 | 14905 ft | 408 kts | 135° |
| 2026-05-04 16:05 | 49.39456 | 11.57328 | 15285 ft | 411 kts | 135° |
| 2026-05-04 16:05 | 49.38180 | 11.59487 | 15515 ft | 413 kts | 135° |
| 2026-05-04 16:05 | 49.34295 | 11.66048 | 16236 ft | 418 kts | 135° |
| 2026-05-04 16:06 | 49.31694 | 11.70432 | 16709 ft | 421 kts | 135° |
| 2026-05-04 16:06 | 49.26379 | 11.79366 | 17599 ft | 428 kts | 135° |
| 2026-05-04 16:07 | 49.24368 | 11.82738 | 17917 ft | 430 kts | 135° |
| 2026-05-04 16:07 | 49.18259 | 11.92956 | 18798 ft | 437 kts | 135° |
| 2026-05-04 16:08 | 49.16199 | 11.96393 | 19068 ft | 439 kts | 135° |
| 2026-05-04 16:08 | 49.09960 | 12.06772 | 19871 ft | 445 kts | 135° |
| 2026-05-04 16:09 | 49.05780 | 12.13704 | 20394 ft | 449 kts | 135° |
| 2026-05-04 16:09 | 49.01523 | 12.20743 | 20875 ft | 453 kts | 135° |
| 2026-05-04 16:10 | 48.97230 | 12.27823 | 21351 ft | 457 kts | 135° |
| 2026-05-04 16:11 | 48.90718 | 12.38525 | 22024 ft | 462 kts | 135° |
| 2026-05-04 16:11 | 48.88529 | 12.42113 | 22242 ft | 464 kts | 135° |
| 2026-05-04 16:12 | 48.81903 | 12.52943 | 22857 ft | 469 kts | 135° |
| 2026-05-04 16:12 | 48.75196 | 12.63858 | 23439 ft | 474 kts | 135° |
| 2026-05-04 16:13 | 48.70685 | 12.71175 | 23783 ft | 476 kts | 135° |
| 2026-05-04 16:13 | 48.66147 | 12.78514 | 24122 ft | 478 kts | 135° |
| 2026-05-04 16:14 | 48.61583 | 12.85875 | 24456 ft | 480 kts | 135° |
| 2026-05-04 16:14 | 48.56999 | 12.93246 | 24767 ft | 483 kts | 135° |
| 2026-05-04 16:15 | 48.50073 | 13.04345 | 25242 ft | 486 kts | 135° |
| 2026-05-04 16:16 | 48.45443 | 13.11739 | 25724 ft | 483 kts | 135° |
| 2026-05-04 16:16 | 48.38551 | 13.22705 | 26361 ft | 482 kts | 135° |
| 2026-05-04 16:17 | 48.33940 | 13.30016 | 26806 ft | 481 kts | 135° |
| 2026-05-04 16:18 | 48.27034 | 13.40926 | 27450 ft | 480 kts | 135° |
| 2026-05-04 16:18 | 48.24733 | 13.44551 | 27674 ft | 479 kts | 135° |
| 2026-05-04 16:19 | 48.17838 | 13.55384 | 28290 ft | 479 kts | 135° |
| 2026-05-04 16:19 | 48.13238 | 13.62586 | 28760 ft | 479 kts | 135° |
| 2026-05-04 16:20 | 48.06339 | 13.73351 | 29679 ft | 477 kts | 135° |
| 2026-05-04 16:20 | 48.01741 | 13.80500 | 30147 ft | 477 kts | 135° |
| 2026-05-04 16:21 | 47.94854 | 13.91171 | 30892 ft | 475 kts | 135° |
| 2026-05-04 16:22 | 47.90251 | 13.98279 | 30921 ft | 477 kts | 135° |
| 2026-05-04 16:23 | 47.76867 | 14.18840 | 30935 ft | 471 kts | 135° |
| 2026-05-04 16:25 | 47.63168 | 14.39715 | 30950 ft | 475 kts | 135° |
| 2026-05-04 16:26 | 47.47348 | 14.65218 | 30988 ft | 485 kts | 133° |
| 2026-05-04 16:28 | 47.35876 | 14.83602 | 30993 ft | 489 kts | 133° |
| 2026-05-04 16:29 | 47.19765 | 15.09197 | 30974 ft | 485 kts | 133° |
| 2026-05-04 16:30 | 47.12950 | 15.19956 | 30938 ft | 462 kts | 152° |
| 2026-05-04 16:31 | 47.08629 | 15.26742 | 30955 ft | 449 kts | 136° |
| 2026-05-04 16:32 | 46.96720 | 15.45343 | 28745 ft | 407 kts | 132° |
| 2026-05-04 16:33 | 46.92686 | 15.51659 | 29013 ft | 409 kts | 133° |
| 2026-05-04 16:33 | 46.89048 | 15.57322 | 30883 ft | 373 kts | 133° |
| 2026-05-04 16:34 | 46.85589 | 15.62689 | 31022 ft | 350 kts | 132° |
| 2026-05-04 16:34 | 46.83936 | 15.65248 | 30996 ft | 343 kts | 132° |
| 2026-05-04 16:35 | 46.74016 | 15.80566 | 31007 ft | 350 kts | 132° |
| 2026-05-04 16:36 | 46.68939 | 15.88396 | 30223 ft | 370 kts | 136° |
| 2026-05-04 16:37 | 46.65471 | 15.93658 | 29553 ft | 383 kts | 134° |
| 2026-05-04 16:37 | 46.63437 | 15.96661 | 27678 ft | 444 kts | 133° |
| 2026-05-04 16:37 | 46.59264 | 16.03084 | 29365 ft | 408 kts | 133° |
| 2026-05-04 16:38 | 46.55563 | 16.08785 | 30877 ft | 381 kts | 133° |
| 2026-05-04 16:39 | 46.50026 | 16.17212 | 31024 ft | 393 kts | 133° |
| 2026-05-04 16:39 | 46.46226 | 16.22986 | 31016 ft | 399 kts | 133° |
| 2026-05-04 16:40 | 46.38518 | 16.34649 | 30996 ft | 397 kts | 133° |
| 2026-05-04 16:41 | 46.29074 | 16.48860 | 30995 ft | 384 kts | 133° |
| 2026-05-04 16:43 | 46.19926 | 16.62551 | 30998 ft | 382 kts | 133° |
| 2026-05-04 16:43 | 46.14299 | 16.70940 | 31008 ft | 395 kts | 134° |
| 2026-05-04 16:44 | 46.06805 | 16.82071 | 30957 ft | 369 kts | 132° |
| 2026-05-04 16:45 | 46.03070 | 16.87607 | 30571 ft | 392 kts | 132° |
| 2026-05-04 16:46 | 45.97363 | 16.96029 | 30959 ft | 398 kts | 132° |
| 2026-05-04 16:46 | 45.93448 | 17.01793 | 31025 ft | 408 kts | 132° |
| 2026-05-04 16:47 | 45.89401 | 17.07741 | 31038 ft | 419 kts | 132° |
| 2026-05-04 16:47 | 45.85298 | 17.13757 | 30916 ft | 428 kts | 134° |
| 2026-05-04 16:48 | 45.78966 | 17.23009 | 31001 ft | 440 kts | 134° |
| 2026-05-04 16:48 | 45.76810 | 17.26153 | 31015 ft | 444 kts | 134° |
| 2026-05-04 16:49 | 45.68068 | 17.38864 | 31017 ft | 448 kts | 134° |
| 2026-05-04 16:50 | 45.63913 | 17.44910 | 30652 ft | 431 kts | 136° |
| 2026-05-04 16:50 | 45.60395 | 17.49984 | 30909 ft | 431 kts | 134° |
| 2026-05-04 16:51 | 45.54085 | 17.59074 | 30984 ft | 425 kts | 134° |
| 2026-05-04 16:52 | 45.46191 | 17.70416 | 30731 ft | 341 kts | 133° |
| 2026-05-04 16:52 | 45.44495 | 17.72863 | 30204 ft | 358 kts | 145° |
| 2026-05-04 16:53 | 45.40354 | 17.78439 | 27660 ft | 445 kts | 135° |
| 2026-05-04 16:53 | 45.33900 | 17.87861 | 28414 ft | 443 kts | 134° |
| 2026-05-04 16:54 | 45.31743 | 17.90984 | 28662 ft | 442 kts | 135° |
| 2026-05-04 16:55 | 45.23082 | 18.03334 | 29648 ft | 439 kts | 135° |
| 2026-05-04 16:55 | 45.18773 | 18.09422 | 30150 ft | 436 kts | 135° |
| 2026-05-04 16:56 | 45.14488 | 18.15470 | 30636 ft | 433 kts | 135° |
| 2026-05-04 16:56 | 45.08039 | 18.24547 | 30930 ft | 440 kts | 135° |
| 2026-05-04 16:57 | 45.05855 | 18.27608 | 31205 ft | 445 kts | 132° |
| 2026-05-04 16:57 | 45.01412 | 18.33848 | 30974 ft | 452 kts | 135° |
| 2026-05-04 16:58 | 44.92483 | 18.46325 | 30988 ft | 447 kts | 135° |
| 2026-05-04 17:00 | 44.79561 | 18.64272 | 31001 ft | 379 kts | 134° |
| 2026-05-04 17:00 | 44.74518 | 18.71233 | 30925 ft | 311 kts | 134° |
| 2026-05-04 17:01 | 44.71490 | 18.75432 | 30896 ft | 308 kts | 130° |
| 2026-05-04 17:02 | 44.65121 | 18.83961 | 30376 ft | 321 kts | 133° |
| 2026-05-04 17:02 | 44.62049 | 18.88428 | 30773 ft | 316 kts | 133° |
| 2026-05-04 17:03 | 44.60466 | 18.90608 | 30649 ft | 324 kts | 135° |
| 2026-05-04 17:03 | 44.58857 | 18.92801 | 30826 ft | 322 kts | 135° |
| 2026-05-04 17:03 | 44.55612 | 18.97230 | 30831 ft | 342 kts | 130° |
| 2026-05-04 17:04 | 44.51853 | 19.02478 | 27080 ft | 441 kts | 129° |
| 2026-05-04 17:04 | 44.48292 | 19.08101 | 27693 ft | 403 kts | 122° |
| 2026-05-04 17:05 | 44.44423 | 19.13617 | 28639 ft | 396 kts | 134° |
| 2026-05-04 17:05 | 44.40174 | 19.18821 | 28763 ft | 413 kts | 134° |
| 2026-05-04 17:06 | 44.35874 | 19.24280 | 28940 ft | 427 kts | 132° |
| 2026-05-04 17:06 | 44.33688 | 19.27147 | 29013 ft | 434 kts | 132° |
| 2026-05-04 17:07 | 44.29256 | 19.33070 | 29151 ft | 447 kts | 131° |
| 2026-05-04 17:07 | 44.27736 | 19.35117 | 29202 ft | 452 kts | 131° |
| 2026-05-04 17:07 | 44.22393 | 19.42320 | 29345 ft | 467 kts | 131° |
| 2026-05-04 17:08 | 44.15253 | 19.51914 | 29539 ft | 484 kts | 132° |
| 2026-05-04 17:08 | 44.12817 | 19.55177 | 29662 ft | 487 kts | 132° |
| 2026-05-04 17:09 | 44.10370 | 19.58450 | 29873 ft | 489 kts | 132° |
| 2026-05-04 17:09 | 44.07918 | 19.61723 | 30179 ft | 488 kts | 132° |
| 2026-05-04 17:09 | 44.05474 | 19.64981 | 30457 ft | 487 kts | 132° |
| 2026-05-04 17:10 | 44.00586 | 19.71489 | 30897 ft | 487 kts | 132° |
| 2026-05-04 17:10 | 43.93266 | 19.81214 | 31079 ft | 488 kts | 132° |
| 2026-05-04 17:11 | 43.88368 | 19.87700 | 31076 ft | 485 kts | 132° |
| 2026-05-04 17:12 | 43.81057 | 19.97351 | 31079 ft | 482 kts | 132° |
| 2026-05-04 17:13 | 43.68902 | 20.13330 | 31085 ft | 482 kts | 132° |
| 2026-05-04 17:14 | 43.59133 | 20.26102 | 31095 ft | 485 kts | 132° |
| 2026-05-04 17:15 | 43.51776 | 20.35681 | 31087 ft | 488 kts | 132° |
| 2026-05-04 17:16 | 43.41861 | 20.48535 | 31106 ft | 490 kts | 132° |
| 2026-05-04 17:17 | 43.31907 | 20.61379 | 31106 ft | 490 kts | 132° |
| 2026-05-04 17:18 | 43.21947 | 20.74169 | 31120 ft | 490 kts | 132° |
| 2026-05-04 17:19 | 43.11996 | 20.86889 | 31125 ft | 487 kts | 132° |
| 2026-05-04 17:20 | 43.02075 | 20.99514 | 31123 ft | 487 kts | 132° |
| 2026-05-04 17:20 | 42.94661 | 21.08910 | 31123 ft | 488 kts | 132° |
| 2026-05-04 17:21 | 42.84691 | 21.21496 | 31124 ft | 489 kts | 132° |
| 2026-05-04 17:22 | 42.79692 | 21.27783 | 31129 ft | 489 kts | 132° |
| 2026-05-04 17:23 | 42.69663 | 21.40353 | 31118 ft | 490 kts | 132° |
| 2026-05-04 17:24 | 42.62143 | 21.49741 | 31118 ft | 489 kts | 132° |
| 2026-05-04 17:25 | 42.52119 | 21.62206 | 31111 ft | 488 kts | 132° |
| 2026-05-04 17:26 | 42.42104 | 21.74602 | 31108 ft | 486 kts | 133° |
| 2026-05-04 17:26 | 42.34691 | 21.83750 | 30957 ft | 472 kts | 136° |
| 2026-05-04 17:27 | 42.29880 | 21.89662 | 31065 ft | 465 kts | 136° |
| 2026-05-04 17:28 | 42.20295 | 22.01406 | 31102 ft | 466 kts | 137° |
| 2026-05-04 17:29 | 42.05860 | 22.19006 | 31096 ft | 465 kts | 137° |
| 2026-05-04 17:31 | 41.93900 | 22.33500 | 31093 ft | 461 kts | 137° |
| 2026-05-04 17:32 | 41.82071 | 22.47761 | 31088 ft | 456 kts | 137° |
| 2026-05-04 17:33 | 41.72644 | 22.59074 | 31090 ft | 454 kts | 137° |
| 2026-05-04 17:34 | 41.63999 | 22.69407 | 31086 ft | 453 kts | 137° |
| 2026-05-04 17:35 | 41.51467 | 22.84317 | 31085 ft | 453 kts | 138° |
| 2026-05-04 17:36 | 41.46758 | 22.89899 | 31088 ft | 453 kts | 138° |
| 2026-05-04 17:36 | 41.42043 | 22.95478 | 31074 ft | 453 kts | 138° |
| 2026-05-04 17:37 | 41.37317 | 23.01057 | 31075 ft | 454 kts | 138° |
| 2026-05-04 17:37 | 41.33385 | 23.05689 | 31075 ft | 455 kts | 138° |
| 2026-05-04 17:38 | 41.28640 | 23.11272 | 31071 ft | 456 kts | 138° |
| 2026-05-04 17:38 | 41.23883 | 23.16856 | 31070 ft | 457 kts | 138° |
| 2026-05-04 17:39 | 41.16728 | 23.25233 | 31072 ft | 457 kts | 138° |
| 2026-05-04 17:39 | 41.11953 | 23.30810 | 31071 ft | 457 kts | 138° |
| 2026-05-04 17:40 | 41.07206 | 23.36343 | 31064 ft | 457 kts | 138° |
| 2026-05-04 17:40 | 41.02434 | 23.41894 | 31065 ft | 456 kts | 138° |
| 2026-05-04 17:41 | 40.97665 | 23.47431 | 31065 ft | 456 kts | 137° |
| 2026-05-04 17:41 | 40.92896 | 23.52956 | 31061 ft | 455 kts | 137° |
| 2026-05-04 17:42 | 40.88132 | 23.58465 | 31063 ft | 455 kts | 137° |
| 2026-05-04 17:42 | 40.83370 | 23.63960 | 31057 ft | 455 kts | 137° |
| 2026-05-04 17:43 | 40.78600 | 23.69455 | 31051 ft | 455 kts | 137° |
| 2026-05-04 17:43 | 40.73828 | 23.74940 | 31055 ft | 455 kts | 137° |
| 2026-05-04 17:44 | 40.69055 | 23.80415 | 31057 ft | 455 kts | 137° |
| 2026-05-04 17:44 | 40.64293 | 23.85867 | 31057 ft | 456 kts | 137° |
| 2026-05-04 17:45 | 40.59495 | 23.91350 | 31056 ft | 457 kts | 138° |
| 2026-05-04 17:45 | 40.54680 | 23.96841 | 31055 ft | 459 kts | 138° |
| 2026-05-04 17:46 | 40.49850 | 24.02338 | 31055 ft | 460 kts | 138° |
| 2026-05-04 17:46 | 40.45033 | 24.07810 | 31054 ft | 461 kts | 137° |
| 2026-05-04 17:47 | 40.40173 | 24.13319 | 31055 ft | 462 kts | 137° |
| 2026-05-04 17:47 | 40.35299 | 24.18833 | 31060 ft | 463 kts | 137° |
| 2026-05-04 17:48 | 40.30418 | 24.24345 | 31064 ft | 463 kts | 137° |
| 2026-05-04 17:48 | 40.25531 | 24.29853 | 31055 ft | 464 kts | 137° |
| 2026-05-04 17:49 | 40.20638 | 24.35355 | 31061 ft | 463 kts | 137° |
| 2026-05-04 17:49 | 40.15746 | 24.40846 | 31059 ft | 463 kts | 137° |
| 2026-05-04 17:50 | 40.10850 | 24.46331 | 31065 ft | 463 kts | 137° |
| 2026-05-04 17:50 | 40.05953 | 24.51807 | 31064 ft | 463 kts | 137° |
| 2026-05-04 17:51 | 40.01058 | 24.57269 | 31070 ft | 463 kts | 137° |
| 2026-05-04 17:51 | 39.96199 | 24.62681 | 31072 ft | 463 kts | 137° |
| 2026-05-04 17:52 | 39.91301 | 24.68125 | 31072 ft | 463 kts | 137° |
| 2026-05-04 17:52 | 39.86403 | 24.73559 | 31074 ft | 463 kts | 137° |
| 2026-05-04 17:53 | 39.81501 | 24.78987 | 31076 ft | 463 kts | 137° |
| 2026-05-04 17:53 | 39.76593 | 24.84411 | 31075 ft | 463 kts | 137° |
| 2026-05-04 17:54 | 39.71671 | 24.89839 | 31077 ft | 464 kts | 137° |
| 2026-05-04 17:54 | 39.66748 | 24.95259 | 31076 ft | 464 kts | 137° |
| 2026-05-04 17:55 | 39.61814 | 25.00680 | 31081 ft | 465 kts | 137° |
| 2026-05-04 17:55 | 39.56868 | 25.06103 | 31076 ft | 466 kts | 137° |
| 2026-05-04 17:56 | 39.51908 | 25.11531 | 31083 ft | 466 kts | 137° |
| 2026-05-04 17:56 | 39.46946 | 25.16951 | 31083 ft | 467 kts | 137° |
| 2026-05-04 17:57 | 39.41971 | 25.22375 | 31083 ft | 468 kts | 137° |
| 2026-05-04 17:57 | 39.37021 | 25.27761 | 31086 ft | 468 kts | 137° |
| 2026-05-04 17:58 | 39.32032 | 25.33179 | 31086 ft | 469 kts | 137° |
| 2026-05-04 17:58 | 39.27034 | 25.38596 | 31084 ft | 469 kts | 137° |
| 2026-05-04 17:59 | 39.22029 | 25.44010 | 31086 ft | 470 kts | 137° |
| 2026-05-04 18:00 | 39.14508 | 25.52127 | 31090 ft | 470 kts | 137° |
| 2026-05-04 18:00 | 39.09489 | 25.57531 | 31088 ft | 470 kts | 137° |
| 2026-05-04 18:01 | 39.04467 | 25.62927 | 31092 ft | 470 kts | 137° |
| 2026-05-04 18:01 | 38.99442 | 25.68316 | 31091 ft | 470 kts | 137° |
| 2026-05-04 18:02 | 38.91906 | 25.76379 | 31088 ft | 470 kts | 137° |
| 2026-05-04 18:02 | 38.86879 | 25.81745 | 31098 ft | 470 kts | 137° |
| 2026-05-04 18:03 | 38.81852 | 25.87101 | 31095 ft | 470 kts | 137° |
| 2026-05-04 18:03 | 38.76822 | 25.92449 | 31086 ft | 470 kts | 137° |
| 2026-05-04 18:04 | 38.71785 | 25.97795 | 31099 ft | 470 kts | 137° |
| 2026-05-04 18:05 | 38.64222 | 26.05803 | 31085 ft | 471 kts | 137° |
| 2026-05-04 18:05 | 38.59197 | 26.11112 | 31089 ft | 472 kts | 137° |
| 2026-05-04 18:06 | 38.51589 | 26.19130 | 31098 ft | 473 kts | 137° |
| 2026-05-04 18:06 | 38.46503 | 26.24477 | 31103 ft | 474 kts | 137° |
| 2026-05-04 18:07 | 38.41403 | 26.29829 | 31100 ft | 475 kts | 137° |
| 2026-05-04 18:07 | 38.36284 | 26.35190 | 31097 ft | 476 kts | 137° |
| 2026-05-04 18:08 | 38.31166 | 26.40540 | 31096 ft | 477 kts | 137° |
| 2026-05-04 18:08 | 38.26025 | 26.45905 | 31085 ft | 477 kts | 137° |
| 2026-05-04 18:09 | 38.15737 | 26.56609 | 31073 ft | 478 kts | 137° |
| 2026-05-04 18:10 | 38.10618 | 26.61919 | 31077 ft | 478 kts | 137° |
| 2026-05-04 18:10 | 38.05467 | 26.67254 | 31074 ft | 478 kts | 137° |
| 2026-05-04 18:11 | 38.00292 | 26.72602 | 30922 ft | 485 kts | 137° |
| 2026-05-04 18:11 | 37.97688 | 26.75302 | 31072 ft | 482 kts | 137° |
| 2026-05-04 18:11 | 37.95086 | 26.77990 | 31063 ft | 482 kts | 137° |
| 2026-05-04 18:12 | 37.90782 | 26.82417 | 31071 ft | 478 kts | 137° |
| 2026-05-04 18:12 | 37.85628 | 26.87708 | 31076 ft | 476 kts | 137° |
| 2026-05-04 18:13 | 37.79619 | 26.93871 | 31077 ft | 475 kts | 137° |
| 2026-05-04 18:14 | 37.71899 | 27.01775 | 31083 ft | 477 kts | 137° |
| 2026-05-04 18:14 | 37.66730 | 27.07055 | 31083 ft | 479 kts | 137° |
| 2026-05-04 18:15 | 37.56353 | 27.17623 | 31073 ft | 483 kts | 138° |
| 2026-05-04 18:16 | 37.51116 | 27.22942 | 31074 ft | 485 kts | 138° |
| 2026-05-04 18:16 | 37.45853 | 27.28277 | 31065 ft | 486 kts | 138° |
| 2026-05-04 18:17 | 37.37944 | 27.36274 | 31056 ft | 486 kts | 138° |
| 2026-05-04 18:18 | 37.30030 | 27.44254 | 31057 ft | 486 kts | 139° |
| 2026-05-04 18:18 | 37.24758 | 27.49560 | 31050 ft | 485 kts | 139° |
| 2026-05-04 18:19 | 37.16892 | 27.57456 | 31056 ft | 484 kts | 139° |
| 2026-05-04 18:19 | 37.11636 | 27.62720 | 31051 ft | 484 kts | 139° |
| 2026-05-04 18:20 | 37.06375 | 27.67980 | 31052 ft | 483 kts | 139° |
| 2026-05-04 18:20 | 37.01117 | 27.73227 | 31042 ft | 483 kts | 139° |
| 2026-05-04 18:21 | 36.95857 | 27.78466 | 31039 ft | 483 kts | 139° |
| 2026-05-04 18:21 | 36.90586 | 27.83708 | 31034 ft | 484 kts | 140° |
| 2026-05-04 18:22 | 36.86205 | 27.88057 | 31031 ft | 484 kts | 140° |
| 2026-05-04 18:22 | 36.80031 | 27.94174 | 31027 ft | 485 kts | 140° |
| 2026-05-04 18:23 | 36.74740 | 27.99405 | 31016 ft | 486 kts | 140° |
| 2026-05-04 18:23 | 36.69477 | 28.04601 | 31018 ft | 486 kts | 140° |
| 2026-05-04 18:24 | 36.64171 | 28.09829 | 31006 ft | 487 kts | 140° |
| 2026-05-04 18:24 | 36.58859 | 28.15053 | 30998 ft | 487 kts | 140° |
| 2026-05-04 18:25 | 36.53538 | 28.20277 | 30998 ft | 487 kts | 140° |
| 2026-05-04 18:25 | 36.48219 | 28.25490 | 30997 ft | 487 kts | 140° |
| 2026-05-04 18:26 | 36.43791 | 28.29823 | 30996 ft | 487 kts | 141° |
| 2026-05-04 18:26 | 36.38426 | 28.35062 | 30994 ft | 488 kts | 141° |
| 2026-05-04 18:27 | 36.33122 | 28.40234 | 30996 ft | 489 kts | 141° |
| 2026-05-04 18:27 | 36.27764 | 28.45448 | 31000 ft | 490 kts | 141° |
| 2026-05-04 18:28 | 36.22398 | 28.50662 | 30991 ft | 491 kts | 141° |
| 2026-05-04 18:28 | 36.17012 | 28.55886 | 30991 ft | 492 kts | 141° |
| 2026-05-04 18:29 | 36.11615 | 28.61110 | 30993 ft | 493 kts | 141° |
| 2026-05-04 18:29 | 36.06209 | 28.66334 | 30989 ft | 494 kts | 141° |
| 2026-05-04 18:30 | 35.98035 | 28.74213 | 30994 ft | 500 kts | 141° |
| 2026-05-04 18:31 | 35.92538 | 28.79501 | 30986 ft | 500 kts | 141° |
| 2026-05-04 18:31 | 35.87046 | 28.84775 | 30985 ft | 501 kts | 141° |
| 2026-05-04 18:32 | 35.81587 | 28.90008 | 30972 ft | 499 kts | 141° |
| 2026-05-04 18:32 | 35.76106 | 28.95251 | 30974 ft | 498 kts | 142° |
| 2026-05-04 18:33 | 35.70641 | 29.00471 | 30974 ft | 498 kts | 142° |
| 2026-05-04 18:33 | 35.65170 | 29.05687 | 30974 ft | 497 kts | 142° |
| 2026-05-04 18:34 | 35.59702 | 29.10891 | 30970 ft | 497 kts | 142° |
| 2026-05-04 18:34 | 35.54223 | 29.16095 | 30975 ft | 499 kts | 142° |
| 2026-05-04 18:35 | 35.48746 | 29.21289 | 30975 ft | 503 kts | 142° |
| 2026-05-04 18:35 | 35.43199 | 29.26540 | 30965 ft | 504 kts | 143° |
| 2026-05-04 18:36 | 35.37640 | 29.31793 | 30964 ft | 504 kts | 143° |
| 2026-05-04 18:36 | 35.32096 | 29.37022 | 30964 ft | 503 kts | 143° |
| 2026-05-04 18:37 | 35.26553 | 29.42241 | 30962 ft | 502 kts | 143° |
| 2026-05-04 18:37 | 35.21020 | 29.47441 | 30964 ft | 500 kts | 143° |
| 2026-05-04 18:38 | 35.15501 | 29.52620 | 30969 ft | 500 kts | 144° |
| 2026-05-04 18:38 | 35.09958 | 29.57811 | 30973 ft | 503 kts | 144° |
| 2026-05-04 18:39 | 35.04459 | 29.62953 | 30962 ft | 499 kts | 144° |
| 2026-05-04 18:39 | 34.98942 | 29.68101 | 30976 ft | 501 kts | 144° |
| 2026-05-04 18:40 | 34.93398 | 29.73267 | 30969 ft | 501 kts | 144° |
| 2026-05-04 18:40 | 34.87868 | 29.78410 | 30961 ft | 499 kts | 144° |
| 2026-05-04 18:41 | 34.82382 | 29.83505 | 30964 ft | 493 kts | 144° |
| 2026-05-04 18:41 | 34.76922 | 29.88565 | 30972 ft | 493 kts | 145° |
| 2026-05-04 18:42 | 34.71467 | 29.93612 | 30975 ft | 493 kts | 145° |
| 2026-05-04 18:42 | 34.66012 | 29.98650 | 30975 ft | 493 kts | 145° |
| 2026-05-04 18:43 | 34.60573 | 30.03665 | 30977 ft | 495 kts | 146° |
| 2026-05-04 18:43 | 34.55075 | 30.08726 | 30983 ft | 497 kts | 146° |
| 2026-05-04 18:44 | 34.49554 | 30.13800 | 30986 ft | 499 kts | 146° |
| 2026-05-04 18:44 | 34.44006 | 30.18889 | 30982 ft | 501 kts | 147° |
| 2026-05-04 18:45 | 34.38432 | 30.23994 | 30989 ft | 503 kts | 147° |
| 2026-05-04 18:45 | 34.32835 | 30.29112 | 30989 ft | 505 kts | 147° |
| 2026-05-04 18:46 | 34.27211 | 30.34246 | 30994 ft | 507 kts | 147° |
| 2026-05-04 18:46 | 34.21577 | 30.39380 | 30995 ft | 509 kts | 148° |
| 2026-05-04 18:47 | 34.15906 | 30.44538 | 30993 ft | 510 kts | 148° |
| 2026-05-04 18:47 | 34.10234 | 30.49689 | 30993 ft | 511 kts | 148° |
| 2026-05-04 18:48 | 34.04551 | 30.54841 | 31002 ft | 511 kts | 148° |
| 2026-05-04 18:48 | 33.98862 | 30.59990 | 31000 ft | 512 kts | 149° |
| 2026-05-04 18:49 | 33.93167 | 30.65135 | 31000 ft | 512 kts | 149° |
| 2026-05-04 18:49 | 33.87467 | 30.70275 | 31002 ft | 512 kts | 149° |
| 2026-05-04 18:50 | 33.81764 | 30.75409 | 31002 ft | 512 kts | 149° |
| 2026-05-04 18:50 | 33.76063 | 30.80533 | 31006 ft | 512 kts | 150° |
| 2026-05-04 18:51 | 33.70355 | 30.85654 | 31005 ft | 512 kts | 150° |
| 2026-05-04 18:51 | 33.64642 | 30.90771 | 31011 ft | 512 kts | 150° |
| 2026-05-04 18:52 | 33.58928 | 30.95881 | 31011 ft | 512 kts | 150° |
| 2026-05-04 18:52 | 33.53247 | 31.00952 | 31009 ft | 512 kts | 150° |
| 2026-05-04 18:53 | 33.47529 | 31.06048 | 31019 ft | 513 kts | 150° |
| 2026-05-04 18:53 | 33.41803 | 31.11142 | 31026 ft | 513 kts | 150° |
| 2026-05-04 18:54 | 33.36078 | 31.16227 | 31024 ft | 513 kts | 150° |
| 2026-05-04 18:54 | 33.30346 | 31.21310 | 31025 ft | 512 kts | 150° |
| 2026-05-04 18:55 | 33.24621 | 31.26378 | 31023 ft | 512 kts | 150° |
| 2026-05-04 18:55 | 33.16036 | 31.33962 | 31023 ft | 511 kts | 151° |
| 2026-05-04 18:56 | 33.10316 | 31.39005 | 31025 ft | 511 kts | 151° |
| 2026-05-04 18:56 | 33.04599 | 31.44036 | 31026 ft | 510 kts | 151° |
| 2026-05-04 18:57 | 32.98894 | 31.49049 | 31029 ft | 509 kts | 151° |
| 2026-05-04 18:57 | 32.93186 | 31.54056 | 31031 ft | 509 kts | 151° |
| 2026-05-04 18:58 | 32.87484 | 31.59049 | 31034 ft | 508 kts | 151° |
| 2026-05-04 18:58 | 32.81793 | 31.64025 | 31034 ft | 508 kts | 151° |
| 2026-05-04 18:59 | 32.76102 | 31.68993 | 31041 ft | 507 kts | 151° |
| 2026-05-04 18:59 | 32.70448 | 31.73920 | 31041 ft | 507 kts | 152° |
| 2026-05-04 19:00 | 32.64756 | 31.78872 | 31040 ft | 507 kts | 152° |
| 2026-05-04 19:00 | 32.59067 | 31.83813 | 31043 ft | 507 kts | 152° |
| 2026-05-04 19:01 | 32.53379 | 31.88747 | 31048 ft | 507 kts | 152° |
| 2026-05-04 19:01 | 32.47688 | 31.93675 | 31052 ft | 507 kts | 152° |
| 2026-05-04 19:02 | 32.41995 | 31.98596 | 31050 ft | 507 kts | 152° |
| 2026-05-04 19:02 | 32.36293 | 32.03517 | 31056 ft | 507 kts | 152° |
| 2026-05-04 19:03 | 32.30596 | 32.08427 | 31056 ft | 507 kts | 152° |
| 2026-05-04 19:03 | 32.24897 | 32.13330 | 31058 ft | 506 kts | 152° |
| 2026-05-04 19:04 | 32.19197 | 32.18227 | 31060 ft | 506 kts | 152° |
| 2026-05-04 19:04 | 32.13538 | 32.23080 | 31062 ft | 506 kts | 152° |
| 2026-05-04 19:05 | 32.07834 | 32.27965 | 31061 ft | 506 kts | 152° |
| 2026-05-04 19:05 | 32.02139 | 32.32834 | 31065 ft | 505 kts | 152° |
| 2026-05-04 19:06 | 31.96449 | 32.37691 | 31068 ft | 505 kts | 151° |
| 2026-05-04 19:06 | 31.90765 | 32.42535 | 31065 ft | 504 kts | 151° |
| 2026-05-04 19:07 | 31.85085 | 32.47369 | 31066 ft | 504 kts | 151° |
| 2026-05-04 19:07 | 31.79406 | 32.52195 | 31066 ft | 503 kts | 151° |
| 2026-05-04 19:08 | 31.73775 | 32.56972 | 31063 ft | 502 kts | 151° |
| 2026-05-04 19:08 | 31.68112 | 32.61769 | 31063 ft | 501 kts | 151° |
| 2026-05-04 19:09 | 31.62417 | 32.66585 | 31068 ft | 501 kts | 151° |
| 2026-05-04 19:09 | 31.56810 | 32.71320 | 31068 ft | 500 kts | 151° |
| 2026-05-04 19:10 | 31.51167 | 32.76078 | 31069 ft | 499 kts | 151° |
| 2026-05-04 19:10 | 31.45539 | 32.80816 | 31066 ft | 498 kts | 151° |
| 2026-05-04 19:11 | 31.39914 | 32.85544 | 31067 ft | 497 kts | 151° |
| 2026-05-04 19:11 | 31.34294 | 32.90261 | 31074 ft | 497 kts | 151° |
| 2026-05-04 19:12 | 31.25876 | 32.97313 | 31073 ft | 496 kts | 151° |
| 2026-05-04 19:13 | 31.21215 | 33.01211 | 31073 ft | 496 kts | 151° |
| 2026-05-04 19:13 | 31.15569 | 33.05926 | 31076 ft | 495 kts | 151° |
| 2026-05-04 19:14 | 31.10001 | 33.10569 | 31074 ft | 495 kts | 151° |
| 2026-05-04 19:14 | 31.04407 | 33.15227 | 31078 ft | 494 kts | 151° |
| 2026-05-04 19:15 | 30.98815 | 33.19877 | 31091 ft | 493 kts | 151° |
| 2026-05-04 19:15 | 30.92281 | 33.25301 | 31085 ft | 493 kts | 151° |
| 2026-05-04 19:16 | 30.87637 | 33.29150 | 31085 ft | 492 kts | 151° |
| 2026-05-04 19:16 | 30.82058 | 33.33768 | 31092 ft | 492 kts | 152° |
| 2026-05-04 19:17 | 30.76482 | 33.38378 | 31089 ft | 491 kts | 152° |
| 2026-05-04 19:17 | 30.70910 | 33.42978 | 31084 ft | 491 kts | 152° |
| 2026-05-04 19:18 | 30.65344 | 33.47565 | 31092 ft | 491 kts | 152° |
| 2026-05-04 19:18 | 30.59772 | 33.52151 | 31090 ft | 490 kts | 152° |
| 2026-05-04 19:19 | 30.54204 | 33.56727 | 31098 ft | 490 kts | 153° |
| 2026-05-04 19:19 | 30.48625 | 33.61305 | 31100 ft | 491 kts | 153° |
| 2026-05-04 19:20 | 30.43047 | 33.65875 | 31089 ft | 491 kts | 153° |
| 2026-05-04 19:20 | 30.37461 | 33.70448 | 31092 ft | 492 kts | 153° |
| 2026-05-04 19:21 | 30.31872 | 33.75015 | 31093 ft | 492 kts | 153° |
| 2026-05-04 19:21 | 30.26319 | 33.79547 | 31094 ft | 492 kts | 153° |
| 2026-05-04 19:22 | 30.20726 | 33.84104 | 31089 ft | 492 kts | 153° |
| 2026-05-04 19:22 | 30.15133 | 33.88655 | 31088 ft | 492 kts | 153° |
| 2026-05-04 19:23 | 30.09534 | 33.93205 | 31085 ft | 492 kts | 153° |
| 2026-05-04 19:23 | 30.03937 | 33.97747 | 31085 ft | 492 kts | 154° |
| 2026-05-04 19:24 | 29.98340 | 34.02282 | 31078 ft | 491 kts | 154° |
| 2026-05-04 19:24 | 29.92747 | 34.06807 | 31081 ft | 491 kts | 154° |
| 2026-05-04 19:25 | 29.87150 | 34.11329 | 31078 ft | 491 kts | 154° |
| 2026-05-04 19:25 | 29.81558 | 34.15842 | 31079 ft | 491 kts | 154° |
| 2026-05-04 19:26 | 29.75964 | 34.20350 | 31079 ft | 490 kts | 154° |
| 2026-05-04 19:26 | 29.70405 | 34.24822 | 31078 ft | 491 kts | 154° |
| 2026-05-04 19:27 | 29.64807 | 34.29319 | 31072 ft | 491 kts | 154° |
| 2026-05-04 19:27 | 29.59199 | 34.33818 | 31074 ft | 492 kts | 154° |
| 2026-05-04 19:28 | 29.53587 | 34.38315 | 31068 ft | 492 kts | 154° |
| 2026-05-04 19:28 | 29.47969 | 34.42811 | 31066 ft | 492 kts | 154° |
| 2026-05-04 19:29 | 29.42342 | 34.47308 | 31053 ft | 493 kts | 154° |
| 2026-05-04 19:29 | 29.36712 | 34.51801 | 31048 ft | 493 kts | 154° |
| 2026-05-04 19:30 | 29.31086 | 34.56285 | 31046 ft | 493 kts | 154° |
| 2026-05-04 19:30 | 29.25492 | 34.60736 | 31045 ft | 492 kts | 154° |
| 2026-05-04 19:31 | 29.19860 | 34.65213 | 31026 ft | 491 kts | 154° |
| 2026-05-04 19:31 | 29.14261 | 34.69656 | 31045 ft | 488 kts | 154° |
| 2026-05-04 19:32 | 29.08668 | 34.74089 | 31028 ft | 490 kts | 154° |
| 2026-05-04 19:32 | 29.03058 | 34.78529 | 31020 ft | 491 kts | 153° |
| 2026-05-04 19:33 | 28.97431 | 34.82975 | 31021 ft | 492 kts | 153° |
| 2026-05-04 19:33 | 28.91798 | 34.87423 | 31028 ft | 493 kts | 153° |
| 2026-05-04 19:34 | 28.86142 | 34.91881 | 31024 ft | 494 kts | 153° |
| 2026-05-04 19:34 | 28.80492 | 34.96330 | 31024 ft | 494 kts | 153° |
| 2026-05-04 19:35 | 28.74847 | 35.00769 | 31021 ft | 492 kts | 153° |
| 2026-05-04 19:35 | 28.69250 | 35.05165 | 31019 ft | 491 kts | 153° |
| 2026-05-04 19:36 | 28.63632 | 35.09571 | 31020 ft | 489 kts | 153° |
| 2026-05-04 19:36 | 28.58027 | 35.13960 | 31020 ft | 488 kts | 153° |
| 2026-05-04 19:37 | 28.52427 | 35.18338 | 31011 ft | 488 kts | 153° |
| 2026-05-04 19:37 | 28.46843 | 35.22699 | 30997 ft | 486 kts | 153° |
| 2026-05-04 19:38 | 28.41267 | 35.27049 | 31001 ft | 486 kts | 153° |
| 2026-05-04 19:38 | 28.35695 | 35.31389 | 31012 ft | 485 kts | 153° |
| 2026-05-04 19:39 | 28.30128 | 35.35719 | 30996 ft | 485 kts | 153° |
| 2026-05-04 19:39 | 28.24558 | 35.40046 | 30991 ft | 485 kts | 153° |
| 2026-05-04 19:40 | 28.18991 | 35.44367 | 30988 ft | 485 kts | 153° |
| 2026-05-04 19:40 | 28.13419 | 35.48685 | 30986 ft | 485 kts | 153° |
| 2026-05-04 19:41 | 28.07833 | 35.53007 | 30973 ft | 487 kts | 153° |
| 2026-05-04 19:41 | 28.02243 | 35.57329 | 30969 ft | 487 kts | 153° |
| 2026-05-04 19:42 | 27.96688 | 35.61617 | 30975 ft | 487 kts | 153° |
| 2026-05-04 19:42 | 27.91090 | 35.65933 | 30969 ft | 487 kts | 153° |
| 2026-05-04 19:43 | 27.85494 | 35.70248 | 30971 ft | 486 kts | 154° |
| 2026-05-04 19:43 | 27.79902 | 35.74544 | 30970 ft | 486 kts | 154° |
| 2026-05-04 19:44 | 27.74311 | 35.78838 | 30967 ft | 486 kts | 154° |
| 2026-05-04 19:44 | 27.68720 | 35.83127 | 30964 ft | 486 kts | 154° |
| 2026-05-04 19:45 | 27.63134 | 35.87407 | 30965 ft | 485 kts | 154° |
| 2026-05-04 19:45 | 27.57542 | 35.91686 | 30957 ft | 485 kts | 154° |
| 2026-05-04 19:46 | 27.51955 | 35.95956 | 30955 ft | 485 kts | 154° |
| 2026-05-04 19:46 | 27.46373 | 36.00217 | 30958 ft | 485 kts | 154° |
| 2026-05-04 19:47 | 27.40789 | 36.04473 | 30949 ft | 485 kts | 154° |
| 2026-05-04 19:47 | 27.35204 | 36.08725 | 30945 ft | 485 kts | 154° |
| 2026-05-04 19:48 | 27.29615 | 36.12975 | 30939 ft | 485 kts | 154° |
| 2026-05-04 19:48 | 27.24065 | 36.17191 | 30948 ft | 485 kts | 154° |
| 2026-05-04 19:49 | 27.18472 | 36.21434 | 30949 ft | 485 kts | 154° |
| 2026-05-04 19:49 | 27.12867 | 36.25680 | 30945 ft | 486 kts | 154° |
| 2026-05-04 19:50 | 27.07266 | 36.29919 | 30943 ft | 486 kts | 154° |
| 2026-05-04 19:50 | 27.01661 | 36.34154 | 30937 ft | 486 kts | 154° |
| 2026-05-04 19:51 | 26.96056 | 36.38386 | 30947 ft | 485 kts | 154° |
| 2026-05-04 19:51 | 26.90444 | 36.42617 | 30940 ft | 486 kts | 154° |
| 2026-05-04 19:52 | 26.84834 | 36.46841 | 30939 ft | 486 kts | 154° |
| 2026-05-04 19:52 | 26.79223 | 36.51061 | 30937 ft | 486 kts | 154° |
| 2026-05-04 19:53 | 26.73610 | 36.55278 | 30946 ft | 486 kts | 154° |
| 2026-05-04 19:53 | 26.67997 | 36.59489 | 30947 ft | 486 kts | 154° |
| 2026-05-04 19:54 | 26.62375 | 36.63702 | 30941 ft | 486 kts | 154° |
| 2026-05-04 19:54 | 26.56750 | 36.67913 | 30950 ft | 486 kts | 155° |
| 2026-05-04 19:55 | 26.51123 | 36.72120 | 30946 ft | 487 kts | 155° |
| 2026-05-04 19:55 | 26.45534 | 36.76293 | 30943 ft | 487 kts | 155° |
| 2026-05-04 19:56 | 26.39900 | 36.80495 | 30944 ft | 486 kts | 155° |
| 2026-05-04 19:56 | 26.34282 | 36.84681 | 30940 ft | 485 kts | 155° |
| 2026-05-04 19:57 | 26.28670 | 36.88858 | 30940 ft | 485 kts | 155° |
| 2026-05-04 19:57 | 26.23061 | 36.93027 | 30949 ft | 485 kts | 155° |
| 2026-05-04 19:58 | 26.17454 | 36.97186 | 30941 ft | 484 kts | 155° |
| 2026-05-04 19:58 | 26.11838 | 37.01349 | 30953 ft | 485 kts | 155° |
| 2026-05-04 19:59 | 26.07162 | 37.04812 | 30948 ft | 486 kts | 155° |
| 2026-05-04 19:59 | 26.01527 | 37.08982 | 30953 ft | 487 kts | 155° |
| 2026-05-04 20:00 | 25.95868 | 37.13164 | 30939 ft | 489 kts | 155° |
| 2026-05-04 20:00 | 25.89244 | 37.18056 | 30936 ft | 488 kts | 155° |
| 2026-05-04 20:01 | 25.84545 | 37.21526 | 30931 ft | 489 kts | 154° |
| 2026-05-04 20:01 | 25.81864 | 37.23913 | 30929 ft | 500 kts | 144° |
| 2026-05-04 20:01 | 25.79483 | 37.26762 | 30935 ft | 509 kts | 136° |
| 2026-05-04 20:02 | 25.75704 | 37.33529 | 30941 ft | 519 kts | 125° |
| 2026-05-04 20:02 | 25.72304 | 37.40596 | 30953 ft | 518 kts | 125° |
| 2026-05-04 20:03 | 25.68890 | 37.47629 | 30948 ft | 517 kts | 125° |
| 2026-05-04 20:03 | 25.65459 | 37.54540 | 30968 ft | 514 kts | 126° |
| 2026-05-04 20:04 | 25.61987 | 37.61462 | 30960 ft | 514 kts | 126° |
| 2026-05-04 20:04 | 25.58512 | 37.68378 | 30957 ft | 514 kts | 126° |
| 2026-05-04 20:05 | 25.55037 | 37.75291 | 30944 ft | 514 kts | 126° |
| 2026-05-04 20:05 | 25.51559 | 37.82208 | 30942 ft | 514 kts | 126° |
| 2026-05-04 20:06 | 25.48081 | 37.89114 | 30935 ft | 513 kts | 126° |
| 2026-05-04 20:06 | 25.44599 | 37.96018 | 30935 ft | 514 kts | 126° |
| 2026-05-04 20:07 | 25.41109 | 38.02926 | 30921 ft | 514 kts | 126° |
| 2026-05-04 20:07 | 25.37612 | 38.09837 | 30919 ft | 515 kts | 126° |
| 2026-05-04 20:08 | 25.34102 | 38.16763 | 30913 ft | 516 kts | 126° |
| 2026-05-04 20:08 | 25.30590 | 38.23684 | 30927 ft | 516 kts | 126° |
| 2026-05-04 20:08 | 25.28822 | 38.27160 | 30401 ft | 524 kts | 126° |
| 2026-05-04 20:09 | 25.27035 | 38.30670 | 29621 ft | 523 kts | 125° |
| 2026-05-04 20:09 | 25.25254 | 38.34173 | 28749 ft | 523 kts | 125° |
| 2026-05-04 20:09 | 25.23474 | 38.37673 | 27863 ft | 522 kts | 125° |
| 2026-05-04 20:09 | 25.21694 | 38.41168 | 26965 ft | 522 kts | 124° |
| 2026-05-04 20:10 | 25.19920 | 38.44667 | 26031 ft | 523 kts | 123° |
| 2026-05-04 20:10 | 25.18419 | 38.48332 | 25200 ft | 527 kts | 113° |
| 2026-05-04 20:10 | 25.17241 | 38.52147 | 24592 ft | 521 kts | 112° |
| 2026-05-04 20:10 | 25.16108 | 38.55910 | 24078 ft | 512 kts | 111° |
| 2026-05-04 20:11 | 25.14987 | 38.59613 | 23512 ft | 505 kts | 112° |
| 2026-05-04 20:11 | 25.13865 | 38.63263 | 22803 ft | 500 kts | 112° |
| 2026-05-04 20:11 | 25.12738 | 38.66869 | 22116 ft | 494 kts | 112° |
| 2026-05-04 20:11 | 25.11614 | 38.70429 | 21460 ft | 488 kts | 112° |
| 2026-05-04 20:12 | 25.10515 | 38.73886 | 20870 ft | 480 kts | 112° |
| 2026-05-04 20:12 | 25.09413 | 38.77343 | 20247 ft | 475 kts | 112° |
| 2026-05-04 20:12 | 25.08323 | 38.80760 | 19606 ft | 470 kts | 112° |
| 2026-05-04 20:12 | 25.07242 | 38.84146 | 19003 ft | 465 kts | 112° |
| 2026-05-04 20:13 | 25.06175 | 38.87490 | 18438 ft | 459 kts | 112° |
| 2026-05-04 20:13 | 25.05119 | 38.90798 | 17793 ft | 455 kts | 112° |
| 2026-05-04 20:13 | 25.04074 | 38.94068 | 17174 ft | 450 kts | 112° |
| 2026-05-04 20:13 | 25.03041 | 38.97299 | 16642 ft | 444 kts | 112° |
| 2026-05-04 20:14 | 25.02018 | 39.00497 | 16130 ft | 440 kts | 112° |
| 2026-05-04 20:14 | 25.01006 | 39.03658 | 15622 ft | 435 kts | 112° |
| 2026-05-04 20:14 | 25.00000 | 39.06798 | 15139 ft | 434 kts | 112° |
| 2026-05-04 20:14 | 24.98990 | 39.09942 | 14632 ft | 436 kts | 112° |
| 2026-05-04 20:15 | 24.97980 | 39.13085 | 14147 ft | 434 kts | 112° |
| 2026-05-04 20:15 | 24.96979 | 39.16201 | 13656 ft | 430 kts | 112° |
| 2026-05-04 20:15 | 24.95984 | 39.19297 | 13119 ft | 427 kts | 112° |
| 2026-05-04 20:15 | 24.94997 | 39.22364 | 12621 ft | 423 kts | 112° |
| 2026-05-04 20:16 | 24.94020 | 39.25400 | 12252 ft | 417 kts | 112° |
| 2026-05-04 20:16 | 24.93057 | 39.28390 | 11893 ft | 414 kts | 112° |
| 2026-05-04 20:16 | 24.92089 | 39.31387 | 11576 ft | 415 kts | 112° |
| 2026-05-04 20:16 | 24.91120 | 39.34388 | 11346 ft | 416 kts | 111° |
| 2026-05-04 20:17 | 24.90162 | 39.37356 | 11192 ft | 401 kts | 111° |
| 2026-05-04 20:17 | 24.89255 | 39.40173 | 11058 ft | 379 kts | 112° |
| 2026-05-04 20:17 | 24.88397 | 39.42832 | 10915 ft | 358 kts | 112° |
| 2026-05-04 20:17 | 24.87585 | 39.45347 | 10781 ft | 339 kts | 112° |
| 2026-05-04 20:18 | 24.86815 | 39.47726 | 10664 ft | 322 kts | 112° |
| 2026-05-04 20:18 | 24.86083 | 39.49984 | 10560 ft | 306 kts | 112° |
| 2026-05-04 20:18 | 24.85371 | 39.52173 | 10337 ft | 301 kts | 112° |
| 2026-05-04 20:18 | 24.84674 | 39.54317 | 10208 ft | 294 kts | 112° |
| 2026-05-04 20:19 | 24.83992 | 39.56413 | 10046 ft | 288 kts | 112° |
| 2026-05-04 20:19 | 24.83323 | 39.58467 | 9926 ft | 280 kts | 112° |
| 2026-05-04 20:19 | 24.82690 | 39.60420 | 9848 ft | 271 kts | 112° |
| 2026-05-04 20:19 | 24.82065 | 39.62347 | 9787 ft | 261 kts | 112° |
| 2026-05-04 20:20 | 24.81458 | 39.64187 | 9614 ft | 252 kts | 117° |
| 2026-05-04 20:20 | 24.80399 | 39.65662 | 8997 ft | 246 kts | 153° |
| 2026-05-04 20:20 | 24.78816 | 39.66178 | 8293 ft | 234 kts | 181° |
| 2026-05-04 20:20 | 24.77197 | 39.66257 | 7677 ft | 236 kts | 179° |
| 2026-05-04 20:21 | 24.75545 | 39.66507 | 7044 ft | 243 kts | 175° |
| 2026-05-04 20:21 | 24.73871 | 39.66856 | 6487 ft | 244 kts | 173° |
| 2026-05-04 20:21 | 24.70516 | 39.67582 | 5345 ft | 247 kts | 173° |
| 2026-05-04 20:22 | 24.68821 | 39.67944 | 4780 ft | 249 kts | 173° |
| 2026-05-04 20:22 | 24.67110 | 39.68308 | 4156 ft | 252 kts | 173° |
| 2026-05-04 20:22 | 24.65341 | 39.68685 | 3466 ft | 256 kts | 172° |
| 2026-05-04 20:22 | 24.63680 | 39.69043 | 3314 ft | 235 kts | 172° |
| 2026-05-04 20:23 | 24.62151 | 39.69370 | 3074 ft | 216 kts | 172° |
| 2026-05-04 20:23 | 24.61679 | 39.69471 | 2995 ft | 209 kts | 173° |
| 2026-05-04 20:23 | 24.59503 | 39.69929 | 2538 ft | 176 kts | 170° |
| 2026-05-04 20:23 | 24.58330 | 39.70204 | 2328 ft | 167 kts | 174° |
| 2026-05-04 20:24 | 24.57254 | 39.70418 | 2141 ft | 148 kts | 173° |
| 2026-05-04 20:24 | 24.56344 | 39.70604 | 2121 ft | 109 kts | 170° |
| 2026-05-04 20:24 | 24.55812 | 39.70721 | 2109 ft | 47 kts | 169° |
| 2026-05-04 20:24 | 24.55532 | 39.70779 | 2102 ft | 40 kts | 166° |
| 2026-05-04 20:25 | 24.55280 | 39.70888 | 2097 ft | 38 kts | 154° |
| 2026-05-04 20:25 | 24.55216 | 39.71034 | 2098 ft | 20 kts | 82° |
| 2026-05-04 20:25 | 24.55244 | 39.71182 | 2099 ft | 20 kts | 72° |
| 2026-05-04 20:25 | 24.55329 | 39.71212 | 2101 ft | 14 kts | 347° |
| 2026-05-04 20:26 | 24.55420 | 39.71191 | 2103 ft | 13 kts | 351° |
| 2026-05-04 20:26 | 24.55509 | 39.71176 | 2105 ft | 13 kts | 349° |
| 2026-05-04 20:26 | 24.55595 | 39.71156 | 2106 ft | 12 kts | 348° |
| 2026-05-04 20:26 | 24.55626 | 39.71149 | 2107 ft | 13 kts | 348° |
| 2026-05-04 20:27 | 24.55720 | 39.71148 | 2109 ft | 12 kts | 35° |
| 2026-05-04 20:27 | 24.55739 | 39.71199 | 2109 ft | 1 kts | 82° |
| 2026-05-04 20:27 | 24.55740 | 39.71210 | 2109 ft | 2 kts | 81° |
| 2026-05-04 20:27 | 24.55745 | 39.71237 | 2111 ft | 0 kts | 79° |
| 2026-05-04 20:28 | 24.55745 | 39.71240 | 2111 ft | 0 kts | 79° |